sensor_id;sensor_type;location;lat;lon;timestamp;temperature;humidity
831;DHT22;397;50.564;7.272;2023-10-31T00:02:20;12.10;99.90
831;DHT22;397;50.564;7.272;2023-10-31T00:04:48;12.10;99.90
831;DHT22;397;50.564;7.272;2023-10-31T00:07:15;12.10;99.90
831;DHT22;397;50.564;7.272;2023-10-31T00:09:43;12.00;99.90
831;DHT22;397;50.564;7.272;2023-10-31T00:12:10;12.10;99.90
831;DHT22;397;50.564;7.272;2023-10-31T00:14:39;12.20;99.90
831;DHT22;397;50.564;7.272;2023-10-31T00:17:07;12.30;99.90
831;DHT22;397;50.564;7.272;2023-10-31T00:19:34;12.20;99.90
831;DHT22;397;50.564;7.272;2023-10-31T00:22:02;12.20;99.90
831;DHT22;397;50.564;7.272;2023-10-31T00:24:29;12.10;99.90
831;DHT22;397;50.564;7.272;2023-10-31T00:26:58;12.20;99.90
831;DHT22;397;50.564;7.272;2023-10-31T00:29:26;12.10;99.90
831;DHT22;397;50.564;7.272;2023-10-31T00:31:53;12.10;99.90
831;DHT22;397;50.564;7.272;2023-10-31T00:34:21;12.00;99.90
831;DHT22;397;50.564;7.272;2023-10-31T00:36:49;12.10;99.90
831;DHT22;397;50.564;7.272;2023-10-31T00:39:17;12.10;99.90
831;DHT22;397;50.564;7.272;2023-10-31T00:41:45;12.00;99.90
831;DHT22;397;50.564;7.272;2023-10-31T00:44:13;12.00;99.90
831;DHT22;397;50.564;7.272;2023-10-31T00:46:40;11.90;99.90
831;DHT22;397;50.564;7.272;2023-10-31T00:49:08;11.90;99.90
831;DHT22;397;50.564;7.272;2023-10-31T00:51:35;11.80;99.90
831;DHT22;397;50.564;7.272;2023-10-31T00:54:03;11.80;99.90
831;DHT22;397;50.564;7.272;2023-10-31T00:56:30;11.90;99.90
831;DHT22;397;50.564;7.272;2023-10-31T00:58:58;11.90;99.90
831;DHT22;397;50.564;7.272;2023-10-31T01:01:25;11.80;99.90
831;DHT22;397;50.564;7.272;2023-10-31T01:03:53;11.80;99.90
831;DHT22;397;50.564;7.272;2023-10-31T01:06:20;11.80;99.90
831;DHT22;397;50.564;7.272;2023-10-31T01:08:48;11.80;99.90
831;DHT22;397;50.564;7.272;2023-10-31T01:11:15;11.70;99.90
831;DHT22;397;50.564;7.272;2023-10-31T01:13:43;11.70;99.90
831;DHT22;397;50.564;7.272;2023-10-31T01:16:10;11.70;99.90
831;DHT22;397;50.564;7.272;2023-10-31T01:18:38;11.70;99.90
831;DHT22;397;50.564;7.272;2023-10-31T01:21:05;11.70;99.90
831;DHT22;397;50.564;7.272;2023-10-31T01:23:33;11.70;99.90
831;DHT22;397;50.564;7.272;2023-10-31T01:26:00;11.70;99.90
831;DHT22;397;50.564;7.272;2023-10-31T01:28:28;11.70;99.90
831;DHT22;397;50.564;7.272;2023-10-31T01:30:55;11.70;99.90
831;DHT22;397;50.564;7.272;2023-10-31T01:33:23;11.70;99.90
831;DHT22;397;50.564;7.272;2023-10-31T01:35:50;11.70;99.90
831;DHT22;397;50.564;7.272;2023-10-31T01:38:18;11.80;99.90
831;DHT22;397;50.564;7.272;2023-10-31T01:40:50;11.80;99.90
831;DHT22;397;50.564;7.272;2023-10-31T01:43:31;11.80;99.90
831;DHT22;397;50.564;7.272;2023-10-31T01:45:58;11.80;99.90
831;DHT22;397;50.564;7.272;2023-10-31T01:48:29;11.80;99.90
831;DHT22;397;50.564;7.272;2023-10-31T01:50:58;11.70;99.90
831;DHT22;397;50.564;7.272;2023-10-31T01:53:28;11.70;99.90
831;DHT22;397;50.564;7.272;2023-10-31T01:55:58;11.70;99.90
831;DHT22;397;50.564;7.272;2023-10-31T01:58:35;11.60;99.90
831;DHT22;397;50.564;7.272;2023-10-31T02:01:00;11.60;99.90
831;DHT22;397;50.564;7.272;2023-10-31T02:03:28;11.50;99.90
831;DHT22;397;50.564;7.272;2023-10-31T02:05:56;11.50;99.90
831;DHT22;397;50.564;7.272;2023-10-31T02:08:25;11.50;99.90
831;DHT22;397;50.564;7.272;2023-10-31T02:10:52;11.40;99.90
831;DHT22;397;50.564;7.272;2023-10-31T02:13:20;11.30;99.90
831;DHT22;397;50.564;7.272;2023-10-31T02:15:48;11.20;99.90
831;DHT22;397;50.564;7.272;2023-10-31T02:18:15;11.10;99.90
831;DHT22;397;50.564;7.272;2023-10-31T02:20:43;11.10;99.90
831;DHT22;397;50.564;7.272;2023-10-31T02:23:11;11.10;99.90
831;DHT22;397;50.564;7.272;2023-10-31T02:25:38;11.20;99.90
831;DHT22;397;50.564;7.272;2023-10-31T02:28:06;11.10;99.90
831;DHT22;397;50.564;7.272;2023-10-31T02:30:34;11.00;99.90
831;DHT22;397;50.564;7.272;2023-10-31T02:33:02;11.00;99.90
831;DHT22;397;50.564;7.272;2023-10-31T02:35:30;10.80;99.90
831;DHT22;397;50.564;7.272;2023-10-31T02:37:57;10.80;99.90
831;DHT22;397;50.564;7.272;2023-10-31T02:40:25;10.80;99.90
831;DHT22;397;50.564;7.272;2023-10-31T02:42:52;10.70;99.90
831;DHT22;397;50.564;7.272;2023-10-31T02:45:20;10.60;99.90
831;DHT22;397;50.564;7.272;2023-10-31T02:47:47;10.60;99.90
831;DHT22;397;50.564;7.272;2023-10-31T02:50:15;10.60;99.90
831;DHT22;397;50.564;7.272;2023-10-31T02:52:42;10.70;99.90
831;DHT22;397;50.564;7.272;2023-10-31T02:55:10;10.70;99.90
831;DHT22;397;50.564;7.272;2023-10-31T02:57:38;10.60;99.90
831;DHT22;397;50.564;7.272;2023-10-31T03:00:06;10.70;99.90
831;DHT22;397;50.564;7.272;2023-10-31T03:02:34;10.80;99.90
831;DHT22;397;50.564;7.272;2023-10-31T03:05:01;10.70;99.90
831;DHT22;397;50.564;7.272;2023-10-31T03:07:29;10.70;99.90
831;DHT22;397;50.564;7.272;2023-10-31T03:09:56;10.70;99.90
831;DHT22;397;50.564;7.272;2023-10-31T03:12:24;10.70;99.90
831;DHT22;397;50.564;7.272;2023-10-31T03:14:51;10.70;99.90
831;DHT22;397;50.564;7.272;2023-10-31T03:17:18;10.70;99.90
831;DHT22;397;50.564;7.272;2023-10-31T03:19:47;10.60;99.90
831;DHT22;397;50.564;7.272;2023-10-31T03:22:14;10.60;99.90
831;DHT22;397;50.564;7.272;2023-10-31T03:24:42;10.60;99.90
831;DHT22;397;50.564;7.272;2023-10-31T03:27:09;10.60;99.90
831;DHT22;397;50.564;7.272;2023-10-31T03:29:37;10.50;99.90
831;DHT22;397;50.564;7.272;2023-10-31T03:32:05;10.50;99.90
831;DHT22;397;50.564;7.272;2023-10-31T03:34:32;10.50;99.90
831;DHT22;397;50.564;7.272;2023-10-31T03:37:00;10.50;99.90
831;DHT22;397;50.564;7.272;2023-10-31T03:39:27;10.60;99.90
831;DHT22;397;50.564;7.272;2023-10-31T03:41:55;10.70;99.90
831;DHT22;397;50.564;7.272;2023-10-31T03:44:22;10.70;99.90
831;DHT22;397;50.564;7.272;2023-10-31T03:46:50;10.70;99.90
831;DHT22;397;50.564;7.272;2023-10-31T03:49:17;10.70;99.90
831;DHT22;397;50.564;7.272;2023-10-31T03:51:45;10.60;99.90
831;DHT22;397;50.564;7.272;2023-10-31T03:54:13;10.60;99.90
831;DHT22;397;50.564;7.272;2023-10-31T03:56:42;10.60;99.90
831;DHT22;397;50.564;7.272;2023-10-31T03:59:10;10.70;99.90
831;DHT22;397;50.564;7.272;2023-10-31T04:01:38;10.70;99.90
831;DHT22;397;50.564;7.272;2023-10-31T04:04:05;10.90;99.90
831;DHT22;397;50.564;7.272;2023-10-31T04:06:33;10.90;99.90
831;DHT22;397;50.564;7.272;2023-10-31T04:09:00;10.90;99.90
831;DHT22;397;50.564;7.272;2023-10-31T04:11:28;10.80;99.90
831;DHT22;397;50.564;7.272;2023-10-31T04:13:55;10.80;99.90
831;DHT22;397;50.564;7.272;2023-10-31T04:16:23;10.90;99.90
831;DHT22;397;50.564;7.272;2023-10-31T04:18:51;10.80;99.90
831;DHT22;397;50.564;7.272;2023-10-31T04:21:18;10.80;99.90
831;DHT22;397;50.564;7.272;2023-10-31T04:23:46;10.90;99.90
831;DHT22;397;50.564;7.272;2023-10-31T04:26:13;10.90;99.90
831;DHT22;397;50.564;7.272;2023-10-31T04:28:42;10.80;99.90
831;DHT22;397;50.564;7.272;2023-10-31T04:31:10;10.90;99.90
831;DHT22;397;50.564;7.272;2023-10-31T04:33:37;10.90;99.90
831;DHT22;397;50.564;7.272;2023-10-31T04:36:05;10.90;99.90
831;DHT22;397;50.564;7.272;2023-10-31T04:38:32;11.00;99.90
831;DHT22;397;50.564;7.272;2023-10-31T04:41:01;11.10;99.90
831;DHT22;397;50.564;7.272;2023-10-31T04:43:29;11.00;99.90
831;DHT22;397;50.564;7.272;2023-10-31T04:45:56;11.00;99.90
831;DHT22;397;50.564;7.272;2023-10-31T04:48:24;11.10;99.90
831;DHT22;397;50.564;7.272;2023-10-31T04:50:51;11.10;99.90
831;DHT22;397;50.564;7.272;2023-10-31T04:53:19;11.10;99.90
831;DHT22;397;50.564;7.272;2023-10-31T04:55:46;11.10;99.90
831;DHT22;397;50.564;7.272;2023-10-31T04:58:14;11.00;99.90
831;DHT22;397;50.564;7.272;2023-10-31T05:00:41;10.90;99.90
831;DHT22;397;50.564;7.272;2023-10-31T05:03:10;10.90;99.90
831;DHT22;397;50.564;7.272;2023-10-31T05:05:38;10.90;99.90
831;DHT22;397;50.564;7.272;2023-10-31T05:08:05;10.90;99.90
831;DHT22;397;50.564;7.272;2023-10-31T05:10:33;10.90;99.90
831;DHT22;397;50.564;7.272;2023-10-31T05:13:02;10.90;99.90
831;DHT22;397;50.564;7.272;2023-10-31T05:15:29;10.90;99.90
831;DHT22;397;50.564;7.272;2023-10-31T05:17:57;10.90;99.90
831;DHT22;397;50.564;7.272;2023-10-31T05:20:25;10.90;99.90
831;DHT22;397;50.564;7.272;2023-10-31T05:22:52;10.90;99.90
831;DHT22;397;50.564;7.272;2023-10-31T05:25:20;10.90;99.90
831;DHT22;397;50.564;7.272;2023-10-31T05:27:47;10.90;99.90
831;DHT22;397;50.564;7.272;2023-10-31T05:30:15;10.90;99.90
831;DHT22;397;50.564;7.272;2023-10-31T05:32:43;10.80;99.90
831;DHT22;397;50.564;7.272;2023-10-31T05:35:11;10.80;99.90
831;DHT22;397;50.564;7.272;2023-10-31T05:37:38;10.80;99.90
831;DHT22;397;50.564;7.272;2023-10-31T05:40:07;10.90;99.90
831;DHT22;397;50.564;7.272;2023-10-31T05:42:34;10.80;99.90
831;DHT22;397;50.564;7.272;2023-10-31T05:45:02;10.80;99.90
831;DHT22;397;50.564;7.272;2023-10-31T05:47:29;10.80;99.90
831;DHT22;397;50.564;7.272;2023-10-31T05:49:57;10.80;99.90
831;DHT22;397;50.564;7.272;2023-10-31T05:52:29;10.80;99.90
831;DHT22;397;50.564;7.272;2023-10-31T05:54:58;10.80;99.90
831;DHT22;397;50.564;7.272;2023-10-31T05:57:26;10.80;99.90
831;DHT22;397;50.564;7.272;2023-10-31T05:59:53;10.90;99.90
831;DHT22;397;50.564;7.272;2023-10-31T06:02:21;10.80;99.90
831;DHT22;397;50.564;7.272;2023-10-31T06:04:48;10.60;99.90
831;DHT22;397;50.564;7.272;2023-10-31T06:07:16;10.60;99.90
831;DHT22;397;50.564;7.272;2023-10-31T06:09:43;10.50;99.90
831;DHT22;397;50.564;7.272;2023-10-31T06:12:11;10.60;99.90
831;DHT22;397;50.564;7.272;2023-10-31T06:14:38;10.70;99.90
831;DHT22;397;50.564;7.272;2023-10-31T06:17:06;10.80;99.90
831;DHT22;397;50.564;7.272;2023-10-31T06:19:39;10.90;99.90
831;DHT22;397;50.564;7.272;2023-10-31T06:22:08;10.90;99.90
831;DHT22;397;50.564;7.272;2023-10-31T06:24:35;10.90;99.90
831;DHT22;397;50.564;7.272;2023-10-31T06:27:03;10.80;99.90
831;DHT22;397;50.564;7.272;2023-10-31T06:29:30;10.90;99.90
831;DHT22;397;50.564;7.272;2023-10-31T06:31:58;10.90;99.90
831;DHT22;397;50.564;7.272;2023-10-31T06:34:25;10.80;99.90
831;DHT22;397;50.564;7.272;2023-10-31T06:36:53;10.80;99.90
831;DHT22;397;50.564;7.272;2023-10-31T06:39:20;10.90;99.90
831;DHT22;397;50.564;7.272;2023-10-31T06:41:49;10.80;99.90
831;DHT22;397;50.564;7.272;2023-10-31T06:44:16;10.90;99.90
831;DHT22;397;50.564;7.272;2023-10-31T06:46:44;10.90;99.90
831;DHT22;397;50.564;7.272;2023-10-31T06:49:11;10.90;99.90
831;DHT22;397;50.564;7.272;2023-10-31T06:51:39;10.90;99.90
831;DHT22;397;50.564;7.272;2023-10-31T06:54:06;10.90;99.90
831;DHT22;397;50.564;7.272;2023-10-31T06:56:34;11.00;99.90
831;DHT22;397;50.564;7.272;2023-10-31T06:59:01;11.00;99.90
831;DHT22;397;50.564;7.272;2023-10-31T07:01:29;11.00;99.90
831;DHT22;397;50.564;7.272;2023-10-31T07:03:56;11.00;99.90
831;DHT22;397;50.564;7.272;2023-10-31T07:06:24;11.00;99.90
831;DHT22;397;50.564;7.272;2023-10-31T07:08:51;11.10;99.90
831;DHT22;397;50.564;7.272;2023-10-31T07:11:19;11.10;99.90
831;DHT22;397;50.564;7.272;2023-10-31T07:13:46;11.00;99.90
831;DHT22;397;50.564;7.272;2023-10-31T07:16:14;11.10;99.90
831;DHT22;397;50.564;7.272;2023-10-31T07:18:41;11.00;99.90
831;DHT22;397;50.564;7.272;2023-10-31T07:21:09;11.00;99.90
831;DHT22;397;50.564;7.272;2023-10-31T07:23:36;11.10;99.90
831;DHT22;397;50.564;7.272;2023-10-31T07:26:04;11.10;99.90
831;DHT22;397;50.564;7.272;2023-10-31T07:28:32;11.10;99.90
831;DHT22;397;50.564;7.272;2023-10-31T07:31:00;11.20;99.90
831;DHT22;397;50.564;7.272;2023-10-31T07:33:28;11.20;99.90
831;DHT22;397;50.564;7.272;2023-10-31T07:35:55;11.20;99.90
831;DHT22;397;50.564;7.272;2023-10-31T07:38:23;11.30;99.90
831;DHT22;397;50.564;7.272;2023-10-31T07:40:50;11.30;99.90
831;DHT22;397;50.564;7.272;2023-10-31T07:43:18;11.20;99.90
831;DHT22;397;50.564;7.272;2023-10-31T07:45:45;11.20;99.90
831;DHT22;397;50.564;7.272;2023-10-31T07:48:13;11.30;99.90
831;DHT22;397;50.564;7.272;2023-10-31T07:50:40;11.30;99.90
831;DHT22;397;50.564;7.272;2023-10-31T07:53:08;11.30;99.90
831;DHT22;397;50.564;7.272;2023-10-31T07:55:35;11.40;99.90
831;DHT22;397;50.564;7.272;2023-10-31T07:58:02;11.40;99.90
831;DHT22;397;50.564;7.272;2023-10-31T08:00:30;11.40;99.90
831;DHT22;397;50.564;7.272;2023-10-31T08:02:59;11.40;99.90
831;DHT22;397;50.564;7.272;2023-10-31T08:05:26;11.50;99.90
831;DHT22;397;50.564;7.272;2023-10-31T08:07:54;11.50;99.90
831;DHT22;397;50.564;7.272;2023-10-31T08:10:21;11.50;99.90
831;DHT22;397;50.564;7.272;2023-10-31T08:12:49;11.50;99.90
831;DHT22;397;50.564;7.272;2023-10-31T08:15:16;11.50;99.90
831;DHT22;397;50.564;7.272;2023-10-31T08:17:44;11.60;99.90
831;DHT22;397;50.564;7.272;2023-10-31T08:20:12;11.60;99.90
831;DHT22;397;50.564;7.272;2023-10-31T08:22:40;11.60;99.90
831;DHT22;397;50.564;7.272;2023-10-31T08:25:09;11.60;99.90
831;DHT22;397;50.564;7.272;2023-10-31T08:27:36;11.70;99.90
831;DHT22;397;50.564;7.272;2023-10-31T08:30:04;11.70;99.90
831;DHT22;397;50.564;7.272;2023-10-31T08:32:33;11.70;99.90
831;DHT22;397;50.564;7.272;2023-10-31T08:35:00;11.80;99.90
831;DHT22;397;50.564;7.272;2023-10-31T08:37:28;11.80;99.90
831;DHT22;397;50.564;7.272;2023-10-31T08:39:55;11.80;99.90
831;DHT22;397;50.564;7.272;2023-10-31T08:42:23;11.90;99.90
831;DHT22;397;50.564;7.272;2023-10-31T08:44:50;11.90;99.90
831;DHT22;397;50.564;7.272;2023-10-31T08:47:18;12.00;99.90
831;DHT22;397;50.564;7.272;2023-10-31T08:49:45;12.00;99.90
831;DHT22;397;50.564;7.272;2023-10-31T08:52:12;12.10;99.90
831;DHT22;397;50.564;7.272;2023-10-31T08:54:40;12.20;99.90
831;DHT22;397;50.564;7.272;2023-10-31T08:57:08;12.10;99.90
831;DHT22;397;50.564;7.272;2023-10-31T08:59:35;12.10;99.90
831;DHT22;397;50.564;7.272;2023-10-31T09:02:03;12.20;99.90
831;DHT22;397;50.564;7.272;2023-10-31T09:04:30;12.20;99.90
831;DHT22;397;50.564;7.272;2023-10-31T09:06:58;12.20;99.90
831;DHT22;397;50.564;7.272;2023-10-31T09:09:25;12.30;99.90
831;DHT22;397;50.564;7.272;2023-10-31T09:11:53;12.40;99.90
831;DHT22;397;50.564;7.272;2023-10-31T09:14:20;12.50;99.90
831;DHT22;397;50.564;7.272;2023-10-31T09:16:48;12.60;99.90
831;DHT22;397;50.564;7.272;2023-10-31T09:19:15;12.70;99.90
831;DHT22;397;50.564;7.272;2023-10-31T09:21:43;12.70;99.90
831;DHT22;397;50.564;7.272;2023-10-31T09:24:10;12.80;99.90
831;DHT22;397;50.564;7.272;2023-10-31T09:26:43;12.90;99.90
831;DHT22;397;50.564;7.272;2023-10-31T09:29:13;13.00;99.90
831;DHT22;397;50.564;7.272;2023-10-31T09:31:41;13.20;99.90
831;DHT22;397;50.564;7.272;2023-10-31T09:34:08;13.20;99.90
831;DHT22;397;50.564;7.272;2023-10-31T09:36:36;13.30;99.90
831;DHT22;397;50.564;7.272;2023-10-31T09:39:03;13.40;99.90
831;DHT22;397;50.564;7.272;2023-10-31T09:41:31;13.60;99.90
831;DHT22;397;50.564;7.272;2023-10-31T09:43:59;13.80;99.90
831;DHT22;397;50.564;7.272;2023-10-31T09:46:28;13.90;99.90
831;DHT22;397;50.564;7.272;2023-10-31T09:48:56;14.00;99.90
831;DHT22;397;50.564;7.272;2023-10-31T09:51:24;14.20;99.90
831;DHT22;397;50.564;7.272;2023-10-31T09:53:54;14.40;99.90
831;DHT22;397;50.564;7.272;2023-10-31T09:56:22;14.50;99.90
831;DHT22;397;50.564;7.272;2023-10-31T09:58:50;14.40;99.90
831;DHT22;397;50.564;7.272;2023-10-31T10:01:18;14.40;99.90
831;DHT22;397;50.564;7.272;2023-10-31T10:03:46;14.40;99.90
831;DHT22;397;50.564;7.272;2023-10-31T10:06:13;14.20;99.90
831;DHT22;397;50.564;7.272;2023-10-31T10:08:41;14.10;99.90
831;DHT22;397;50.564;7.272;2023-10-31T10:11:09;14.10;99.90
831;DHT22;397;50.564;7.272;2023-10-31T10:13:36;14.10;99.90
831;DHT22;397;50.564;7.272;2023-10-31T10:16:04;14.20;99.90
831;DHT22;397;50.564;7.272;2023-10-31T10:18:33;14.40;99.90
831;DHT22;397;50.564;7.272;2023-10-31T10:21:04;14.50;99.90
831;DHT22;397;50.564;7.272;2023-10-31T10:23:32;14.40;99.90
831;DHT22;397;50.564;7.272;2023-10-31T10:26:01;14.50;99.90
831;DHT22;397;50.564;7.272;2023-10-31T10:28:29;14.40;99.90
831;DHT22;397;50.564;7.272;2023-10-31T10:30:56;14.40;99.90
831;DHT22;397;50.564;7.272;2023-10-31T10:33:24;14.40;99.90
831;DHT22;397;50.564;7.272;2023-10-31T10:35:51;14.40;99.90
831;DHT22;397;50.564;7.272;2023-10-31T10:38:19;14.50;99.90
831;DHT22;397;50.564;7.272;2023-10-31T10:40:48;14.60;99.90
831;DHT22;397;50.564;7.272;2023-10-31T10:43:23;14.70;99.90
831;DHT22;397;50.564;7.272;2023-10-31T10:45:56;14.60;99.90
831;DHT22;397;50.564;7.272;2023-10-31T10:48:28;14.60;99.90
831;DHT22;397;50.564;7.272;2023-10-31T10:51:03;14.60;99.90
831;DHT22;397;50.564;7.272;2023-10-31T10:53:30;14.80;99.90
831;DHT22;397;50.564;7.272;2023-10-31T10:56:09;14.80;99.90
831;DHT22;397;50.564;7.272;2023-10-31T10:58:56;14.90;99.90
831;DHT22;397;50.564;7.272;2023-10-31T11:01:25;14.90;99.90
831;DHT22;397;50.564;7.272;2023-10-31T11:03:58;14.80;99.90
831;DHT22;397;50.564;7.272;2023-10-31T11:06:26;14.70;99.90
831;DHT22;397;50.564;7.272;2023-10-31T11:08:55;14.50;99.90
831;DHT22;397;50.564;7.272;2023-10-31T11:11:25;14.50;99.90
831;DHT22;397;50.564;7.272;2023-10-31T11:13:52;14.40;99.90
831;DHT22;397;50.564;7.272;2023-10-31T11:17:04;14.40;99.90
831;DHT22;397;50.564;7.272;2023-10-31T11:19:09;14.40;99.90
831;DHT22;397;50.564;7.272;2023-10-31T11:21:37;14.60;99.90
831;DHT22;397;50.564;7.272;2023-10-31T11:24:07;14.60;99.90
831;DHT22;397;50.564;7.272;2023-10-31T11:26:34;14.50;99.90
831;DHT22;397;50.564;7.272;2023-10-31T11:29:05;14.50;99.90
831;DHT22;397;50.564;7.272;2023-10-31T11:31:33;14.70;99.90
831;DHT22;397;50.564;7.272;2023-10-31T11:34:02;14.70;99.90
831;DHT22;397;50.564;7.272;2023-10-31T11:36:32;14.70;99.90
831;DHT22;397;50.564;7.272;2023-10-31T11:39:21;14.80;99.90
831;DHT22;397;50.564;7.272;2023-10-31T11:41:55;15.00;99.90
831;DHT22;397;50.564;7.272;2023-10-31T11:44:27;15.00;99.90
831;DHT22;397;50.564;7.272;2023-10-31T11:46:58;14.90;99.90
831;DHT22;397;50.564;7.272;2023-10-31T11:49:46;14.70;99.90
831;DHT22;397;50.564;7.272;2023-10-31T11:52:18;14.60;99.90
831;DHT22;397;50.564;7.272;2023-10-31T11:54:46;14.30;99.90
831;DHT22;397;50.564;7.272;2023-10-31T11:57:28;14.30;99.90
831;DHT22;397;50.564;7.272;2023-10-31T11:59:56;14.20;99.90
831;DHT22;397;50.564;7.272;2023-10-31T12:02:24;14.20;99.90
831;DHT22;397;50.564;7.272;2023-10-31T12:05:05;14.20;99.90
831;DHT22;397;50.564;7.272;2023-10-31T12:07:21;14.30;99.90
831;DHT22;397;50.564;7.272;2023-10-31T12:09:48;14.30;99.90
831;DHT22;397;50.564;7.272;2023-10-31T12:12:16;14.20;99.90
831;DHT22;397;50.564;7.272;2023-10-31T12:14:44;14.10;99.90
831;DHT22;397;50.564;7.272;2023-10-31T12:17:11;14.10;99.90
831;DHT22;397;50.564;7.272;2023-10-31T12:19:39;14.10;99.90
831;DHT22;397;50.564;7.272;2023-10-31T12:22:15;14.10;99.90
831;DHT22;397;50.564;7.272;2023-10-31T12:24:42;14.00;99.90
831;DHT22;397;50.564;7.272;2023-10-31T12:27:09;14.00;99.90
831;DHT22;397;50.564;7.272;2023-10-31T12:29:37;14.00;99.90
831;DHT22;397;50.564;7.272;2023-10-31T12:32:05;13.90;99.90
831;DHT22;397;50.564;7.272;2023-10-31T12:34:34;13.80;99.90
831;DHT22;397;50.564;7.272;2023-10-31T12:37:03;13.70;99.90
831;DHT22;397;50.564;7.272;2023-10-31T12:39:30;13.70;99.90
831;DHT22;397;50.564;7.272;2023-10-31T12:41:58;13.70;99.90
831;DHT22;397;50.564;7.272;2023-10-31T12:44:27;13.70;99.90
831;DHT22;397;50.564;7.272;2023-10-31T12:46:54;13.60;99.90
831;DHT22;397;50.564;7.272;2023-10-31T12:49:22;13.70;99.90
831;DHT22;397;50.564;7.272;2023-10-31T12:52:03;13.70;99.90
831;DHT22;397;50.564;7.272;2023-10-31T12:54:38;13.80;99.90
831;DHT22;397;50.564;7.272;2023-10-31T12:57:07;13.80;99.90
831;DHT22;397;50.564;7.272;2023-10-31T12:59:37;13.90;99.90
831;DHT22;397;50.564;7.272;2023-10-31T13:02:05;13.90;99.90
831;DHT22;397;50.564;7.272;2023-10-31T13:04:34;14.00;99.90
831;DHT22;397;50.564;7.272;2023-10-31T13:07:05;14.10;99.90
831;DHT22;397;50.564;7.272;2023-10-31T13:09:35;14.00;99.90
831;DHT22;397;50.564;7.272;2023-10-31T13:12:06;14.00;99.90
831;DHT22;397;50.564;7.272;2023-10-31T13:14:34;14.00;99.90
831;DHT22;397;50.564;7.272;2023-10-31T13:17:03;14.00;99.90
831;DHT22;397;50.564;7.272;2023-10-31T13:19:30;14.10;99.90
831;DHT22;397;50.564;7.272;2023-10-31T13:21:58;14.10;99.90
831;DHT22;397;50.564;7.272;2023-10-31T13:24:25;14.10;99.90
831;DHT22;397;50.564;7.272;2023-10-31T13:26:53;14.10;99.90
831;DHT22;397;50.564;7.272;2023-10-31T13:29:21;14.10;99.90
831;DHT22;397;50.564;7.272;2023-10-31T13:31:50;14.10;99.90
831;DHT22;397;50.564;7.272;2023-10-31T13:34:17;14.20;99.90
831;DHT22;397;50.564;7.272;2023-10-31T13:36:45;14.20;99.90
831;DHT22;397;50.564;7.272;2023-10-31T13:39:12;14.20;99.90
831;DHT22;397;50.564;7.272;2023-10-31T13:41:40;14.20;99.90
831;DHT22;397;50.564;7.272;2023-10-31T13:44:07;14.30;99.90
831;DHT22;397;50.564;7.272;2023-10-31T13:46:35;14.30;99.90
831;DHT22;397;50.564;7.272;2023-10-31T13:49:03;14.20;99.90
831;DHT22;397;50.564;7.272;2023-10-31T13:51:30;14.30;99.90
831;DHT22;397;50.564;7.272;2023-10-31T13:53:58;14.30;99.90
831;DHT22;397;50.564;7.272;2023-10-31T13:56:25;14.30;99.90
831;DHT22;397;50.564;7.272;2023-10-31T13:58:53;14.20;99.90
831;DHT22;397;50.564;7.272;2023-10-31T14:01:20;14.10;99.90
831;DHT22;397;50.564;7.272;2023-10-31T14:03:49;14.10;99.90
831;DHT22;397;50.564;7.272;2023-10-31T14:06:17;14.10;99.90
831;DHT22;397;50.564;7.272;2023-10-31T14:08:45;14.00;99.90
831;DHT22;397;50.564;7.272;2023-10-31T14:11:13;14.10;99.90
831;DHT22;397;50.564;7.272;2023-10-31T14:13:40;14.00;99.90
831;DHT22;397;50.564;7.272;2023-10-31T14:16:08;13.90;99.90
831;DHT22;397;50.564;7.272;2023-10-31T14:18:38;13.80;99.90
831;DHT22;397;50.564;7.272;2023-10-31T14:21:05;13.70;99.90
831;DHT22;397;50.564;7.272;2023-10-31T14:23:33;13.60;99.90
831;DHT22;397;50.564;7.272;2023-10-31T14:26:00;13.60;99.90
831;DHT22;397;50.564;7.272;2023-10-31T14:28:28;13.60;99.90
831;DHT22;397;50.564;7.272;2023-10-31T14:30:56;13.60;99.90
831;DHT22;397;50.564;7.272;2023-10-31T14:33:23;13.60;99.90
831;DHT22;397;50.564;7.272;2023-10-31T14:35:51;13.60;99.90
831;DHT22;397;50.564;7.272;2023-10-31T14:38:18;13.60;99.90
831;DHT22;397;50.564;7.272;2023-10-31T14:40:46;13.70;99.90
831;DHT22;397;50.564;7.272;2023-10-31T14:43:13;13.70;99.90
831;DHT22;397;50.564;7.272;2023-10-31T14:45:42;13.80;99.90
831;DHT22;397;50.564;7.272;2023-10-31T14:48:10;13.80;99.90
831;DHT22;397;50.564;7.272;2023-10-31T14:50:38;13.70;99.90
831;DHT22;397;50.564;7.272;2023-10-31T14:53:06;13.80;99.90
831;DHT22;397;50.564;7.272;2023-10-31T14:55:35;13.80;99.90
831;DHT22;397;50.564;7.272;2023-10-31T14:58:02;13.80;99.90
831;DHT22;397;50.564;7.272;2023-10-31T15:00:30;13.80;99.90
831;DHT22;397;50.564;7.272;2023-10-31T15:02:57;13.80;99.90
831;DHT22;397;50.564;7.272;2023-10-31T15:05:25;13.80;99.90
831;DHT22;397;50.564;7.272;2023-10-31T15:07:53;13.90;99.90
831;DHT22;397;50.564;7.272;2023-10-31T15:10:21;13.80;99.90
831;DHT22;397;50.564;7.272;2023-10-31T15:12:49;13.80;99.90
831;DHT22;397;50.564;7.272;2023-10-31T15:15:16;13.70;99.90
831;DHT22;397;50.564;7.272;2023-10-31T15:17:44;13.70;99.90
831;DHT22;397;50.564;7.272;2023-10-31T15:20:14;13.70;99.90
831;DHT22;397;50.564;7.272;2023-10-31T15:22:42;13.70;99.90
831;DHT22;397;50.564;7.272;2023-10-31T15:25:10;13.60;99.90
831;DHT22;397;50.564;7.272;2023-10-31T15:27:38;13.60;99.90
831;DHT22;397;50.564;7.272;2023-10-31T15:30:09;13.70;99.90
831;DHT22;397;50.564;7.272;2023-10-31T15:32:37;13.70;99.90
831;DHT22;397;50.564;7.272;2023-10-31T15:35:06;13.70;99.90
831;DHT22;397;50.564;7.272;2023-10-31T15:37:33;13.70;99.90
831;DHT22;397;50.564;7.272;2023-10-31T15:40:01;13.70;99.90
831;DHT22;397;50.564;7.272;2023-10-31T15:42:30;13.70;99.90
831;DHT22;397;50.564;7.272;2023-10-31T15:44:57;13.70;99.90
831;DHT22;397;50.564;7.272;2023-10-31T15:47:27;13.60;99.90
831;DHT22;397;50.564;7.272;2023-10-31T15:49:54;13.60;99.90
831;DHT22;397;50.564;7.272;2023-10-31T15:52:22;13.60;99.90
831;DHT22;397;50.564;7.272;2023-10-31T15:54:49;13.60;99.90
831;DHT22;397;50.564;7.272;2023-10-31T15:57:17;13.50;99.90
831;DHT22;397;50.564;7.272;2023-10-31T15:59:46;13.50;99.90
831;DHT22;397;50.564;7.272;2023-10-31T16:02:13;13.40;99.90
831;DHT22;397;50.564;7.272;2023-10-31T16:04:42;13.40;99.90
831;DHT22;397;50.564;7.272;2023-10-31T16:07:11;13.40;99.90
831;DHT22;397;50.564;7.272;2023-10-31T16:09:39;13.40;99.90
831;DHT22;397;50.564;7.272;2023-10-31T16:12:07;13.40;99.90
831;DHT22;397;50.564;7.272;2023-10-31T16:14:35;13.40;99.90
831;DHT22;397;50.564;7.272;2023-10-31T16:17:03;13.40;99.90
831;DHT22;397;50.564;7.272;2023-10-31T16:19:31;13.30;99.90
831;DHT22;397;50.564;7.272;2023-10-31T16:21:58;13.30;99.90
831;DHT22;397;50.564;7.272;2023-10-31T16:24:26;13.20;99.90
831;DHT22;397;50.564;7.272;2023-10-31T16:26:53;13.30;99.90
831;DHT22;397;50.564;7.272;2023-10-31T16:29:21;13.20;99.90
831;DHT22;397;50.564;7.272;2023-10-31T16:31:48;13.20;99.90
831;DHT22;397;50.564;7.272;2023-10-31T16:34:16;13.20;99.90
831;DHT22;397;50.564;7.272;2023-10-31T16:36:44;13.20;99.90
831;DHT22;397;50.564;7.272;2023-10-31T16:39:11;13.10;99.90
831;DHT22;397;50.564;7.272;2023-10-31T16:41:39;13.10;99.90